Ada, Kansas
Current Conditions -  °F | °C
As of 1:53 PM on Sunday 25 Jan 2015 (Local Time) from KSLN Reporting Station
Overcast Overcast  
Wind Chill: 40°   Ceiling: 3900
Heat Index: 48°   Visibility: 10mi
Dew Point: 31°   Wind: 29mph
Humidity: 52%   Direction: 340°NNW
Pressure: 30.03"   Gusts: 36mph
Location:  39.1542°N, 97.5941°W
Report Text: KSLN 251953Z 34025G31KT 10SM OVC039 09/M01 A3003 RMK AO2 PK WND 34035/1854 SLP171 T00891006
Loading
Personal Weather Stations






























Interactive Weather Map New forecast layout! Learn more

10-Day Weather Forecast

Advertisements
Track Severe Weather on mobile